CT2IRK-11 Weather Reports


Display with metric or nautical units.
time (UTC)temp
F
wind
direction
speed
MPH
gust
MPH
rain 1hr
in
rain 24hr
in
rain mn
in
humidity
%
barometer
mb
20190523212421 60 342 9.0 22.0 0.00 0.00 0.00 70 1013.6
20190523212140 60 308 13.0 22.0 0.00 0.00 0.00 70 1013.6
20190523211920 60 347 9.0 22.0 0.00 0.00 0.00 70 1013.6
20190523211640 60 357 12.0 22.0 0.00 0.00 0.00 70 1013.5
20190523211422 60 19 8.0 22.0 0.00 0.00 0.00 70 1013.4
20190523211158 68 325 11.0 22.0 0.00 0.00 0.00 58 1012.6
20190523211156 68 303 12.0 22.0 0.00 0.00 0.00 60 1012.5
20190523211141 60 4 7.0 22.0 0.00 0.00 0.00 70 1013.4
20190523210921 60 325 7.0 22.0 0.00 0.00 0.00 70 1013.4
20190523210640 60 355 7.0 22.0 0.00 0.00 0.00 69 1013.4
20190523210420 61 345 8.0 22.0 0.00 0.00 0.00 69 1013.6
20190523210140 61 342 8.0 22.0 0.00 0.00 0.00 69 1013.6
20190523205922 61 19 7.0 22.0 0.00 0.00 0.00 69 1013.6
20190523205640 61 348 8.0 22.0 0.00 0.00 0.00 69 1013.6
20190523205422 61 61 8.0 22.0 0.00 0.00 0.00 69 1013.6
20190523205139 61 329 8.0 22.0 0.00 0.00 0.00 68 1013.4
20190523204921 61 342 7.0 22.0 0.00 0.00 0.00 68 1013.4
20190523204641 61 14 8.0 22.0 0.00 0.00 0.00 68 1013.4
20190523204421 61 334 9.0 22.0 0.00 0.00 0.00 68 1013.4
20190523204140 61 345 8.0 22.0 0.00 0.00 0.00 68 1013.3
20190523203922 61 329 12.0 22.0 0.00 0.00 0.00 68 1013.3
20190523203639 62 7 9.0 22.0 0.00 0.00 0.00 67 1013.3
20190523203421 62 344 8.0 22.0 0.00 0.00 0.00 67 1013.3
20190523203141 62 20 9.0 22.0 0.00 0.00 0.00 67 1013.3
20190523202921 62 346 7.0 22.0 0.00 0.00 0.00 67 1013.3
20190523202641 62 36 9.0 22.0 0.00 0.00 0.00 67 1013.3
20190523202421 62 343 8.0 22.0 0.00 0.00 0.00 66 1013.3
20190523202140 62 322 10.0 22.0 0.00 0.00 0.00 66 1013.3
20190523201920 62 336 11.0 22.0 0.00 0.00 0.00 66 1013.3
20190523201640 62 351 11.0 22.0 0.00 0.00 0.00 65 1013.2
20190523201422 63 338 11.0 22.0 0.00 0.00 0.00 65 1013.2
20190523201140 63 339 9.0 22.0 0.00 0.00 0.00 65 1013.2
20190523200922 63 11 11.0 22.0 0.00 0.00 0.00 65 1013.2
20190523200639 63 302 10.0 22.0 0.00 0.00 0.00 65 1013.2
20190523200421 63 8 9.0 22.0 0.00 0.00 0.00 64 1013.1
20190523200141 63 18 9.0 22.0 0.00 0.00 0.00 64 1013.1
20190523195921 63 327 10.0 22.0 0.00 0.00 0.00 63 1013.1
20190523195641 64 31 10.0 22.0 0.00 0.00 0.00 63 1013.1
20190523195421 64 350 8.0 22.0 0.00 0.00 0.00 62 1013.1
20190523195140 64 0 8.0 22.0 0.00 0.00 0.00 62 1013.1
20190523194920 64 334 10.0 22.0 0.00 0.00 0.00 62 1013.1
20190523194640 64 334 8.0 22.0 0.00 0.00 0.00 62 1013.1
20190523194420 64 325 8.0 22.0 0.00 0.00 0.00 62 1013.1
20190523194140 65 324 9.0 22.0 0.00 0.00 0.00 61 1013.0
20190523193921 65 315 8.0 22.0 0.00 0.00 0.00 61 1013.0
20190523193640 65 315 10.0 22.0 0.00 0.00 0.00 60 1013.0
20190523193421 65 333 11.0 22.0 0.00 0.00 0.00 60 1013.0
20190523193140 66 329 7.0 22.0 0.00 0.00 0.00 59 1013.0
20190523192921 66 0 8.0 22.0 0.00 0.00 0.00 59 1013.0
20190523192641 66 9 11.0 22.0 0.00 0.00 0.00 59 1013.0
20190523192421 66 338 10.0 22.0 0.00 0.00 0.00 59 1013.0
20190523192140 66 338 11.0 22.0 0.00 0.00 0.00 58 1013.0
20190523191921 66 338 11.0 22.0 0.00 0.00 0.00 58 1013.0
20190523191639 67 329 12.0 22.0 0.00 0.00 0.00 58 1013.1
20190523191421 67 324 9.0 22.0 0.00 0.00 0.00 58 1013.1
20190523191141 67 338 9.0 22.0 0.00 0.00 0.00 58 1013.1
20190523190922 67 12 9.0 22.0 0.00 0.00 0.00 58 1013.1
20190523190639 68 328 10.0 22.0 0.00 0.00 0.00 58 1013.1
20190523190421 68 329 10.0 22.0 0.00 0.00 0.00 58 1012.7
20190523190139 68 287 6.0 22.0 0.00 0.00 0.00 58 1012.7
20190523185920 68 299 8.0 22.0 0.00 0.00 0.00 58 1012.7
20190523185640 68 333 9.0 22.0 0.00 0.00 0.00 58 1012.7
20190523185422 68 349 10.0 22.0 0.00 0.00 0.00 58 1012.7
20190523185139 68 338 12.0 22.0 0.00 0.00 0.00 58 1012.6
20190523184920 68 338 12.0 22.0 0.00 0.00 0.00 58 1012.6
20190523184640 68 338 12.0 22.0 0.00 0.00 0.00 58 1012.6
20190523184420 68 335 10.0 22.0 0.00 0.00 0.00 58 1012.6
20190523184140 68 334 10.0 22.0 0.00 0.00 0.00 58 1012.6
20190523183920 68 325 11.0 22.0 0.00 0.00 0.00 58 1012.6
20190523183639 68 338 11.0 22.0 0.00 0.00 0.00 58 1012.6
20190523183421 68 338 11.0 22.0 0.00 0.00 0.00 58 1012.6
20190523183139 68 322 11.0 22.0 0.00 0.00 0.00 58 1012.6
20190523182921 68 315 14.0 22.0 0.00 0.00 0.00 58 1012.5
20190523182639 69 20 13.0 22.0 0.00 0.00 0.00 58 1012.5
20190523182421 69 315 12.0 22.0 0.00 0.00 0.00 58 1012.5
20190523182140 69 303 9.0 22.0 0.00 0.00 0.00 59 1012.5
20190523181922 68 345 9.0 22.0 0.00 0.00 0.00 60 1012.5
20190523181639 68 3 11.0 22.0 0.00 0.00 0.00 60 1012.5
20190523181421 68 303 12.0 22.0 0.00 0.00 0.00 60 1012.5
20190523181139 68 21 10.0 22.0 0.00 0.00 0.00 59 1012.5
20190523180920 68 315 10.0 22.0 0.00 0.00 0.00 59 1012.5
20190523180639 69 348 9.0 22.0 0.00 0.00 0.00 59 1012.5
20190523180421 69 331 10.0 22.0 0.00 0.00 0.00 58 1012.6
20190523180139 70 338 12.0 22.0 0.00 0.00 0.00 57 1012.6
20190523175921 70 317 10.0 22.0 0.00 0.00 0.00 57 1012.6
20190523175730 54 120 2.0 5.0 0.00 0.00 0.00 85 1009.4
20190523175728 54 199 2.0 5.0 0.00 0.00 0.00 84 1009.4
20190523175639 69 333 12.0 22.0 0.00 0.00 0.00 57 1012.6
20190523175421 69 337 14.0 22.0 0.00 0.00 0.00 57 1012.5
20190523175140 69 324 9.0 22.0 0.00 0.00 0.00 57 1012.5
20190523174920 69 309 12.0 22.0 0.00 0.00 0.00 57 1012.5
20190523174640 70 325 16.0 22.0 0.00 0.00 0.00 57 1012.5
20190523174420 70 357 14.0 22.0 0.00 0.00 0.00 57 1012.5
20190523174140 70 16 13.0 22.0 0.00 0.00 0.00 57 1012.5
20190523173920 70 338 15.0 22.0 0.00 0.00 0.00 57 1012.3
20190523173639 70 17 13.0 21.0 0.00 0.00 0.00 57 1012.3
20190523173421 70 316 14.0 21.0 0.00 0.00 0.00 57 1012.3
20190523173139 70 315 13.0 21.0 0.00 0.00 0.00 58 1012.3
20190523172921 70 0 11.0 21.0 0.00 0.00 0.00 58 1012.3
20190523172639 70 22 12.0 21.0 0.00 0.00 0.00 58 1012.3
20190523172421 70 323 10.0 21.0 0.00 0.00 0.00 58 1012.3
20190523172140 70 338 13.0 21.0 0.00 0.00 0.00 58 1012.3
20190523171920 71 326 12.0 21.0 0.00 0.00 0.00 59 1012.3
20190523171640 71 338 11.0 21.0 0.00 0.00 0.00 59 1012.3
20190523171420 71 338 13.0 21.0 0.00 0.00 0.00 59 1012.3
20190523171140 71 333 12.0 21.0 0.00 0.00 0.00 59 1012.3
20190523170920 71 343 13.0 21.0 0.00 0.00 0.00 59 1012.3
20190523170639 71 335 13.0 21.0 0.00 0.00 0.00 60 1012.3
20190523170421 71 346 12.0 21.0 0.00 0.00 0.00 60 1012.3
20190523170139 71 358 14.0 21.0 0.00 0.00 0.00 60 1012.3
20190523165921 71 340 13.0 21.0 0.00 0.00 0.00 59 1012.3
20190523165639 72 357 11.0 21.0 0.00 0.00 0.00 59 1012.3
20190523165421 72 355 14.0 21.0 0.00 0.00 0.00 59 1012.3
20190523165140 72 2 14.0 21.0 0.00 0.00 0.00 59 1012.1
20190523164920 71 12 16.0 21.0 0.00 0.00 0.00 59 1012.1
20190523164640 72 329 14.0 21.0 0.00 0.00 0.00 59 1012.1
20190523164420 72 8 13.0 21.0 0.00 0.00 0.00 59 1012.1
20190523164140 72 348 17.0 21.0 0.00 0.00 0.00 58 1012.1
20190523163920 73 352 14.0 21.0 0.00 0.00 0.00 58 1012.1
20190523163639 73 19 15.0 21.0 0.00 0.00 0.00 58 1012.1
20190523163419 73 12 13.0 21.0 0.00 0.00 0.00 58 1012.1
20190523163139 73 22 14.0 21.0 0.00 0.00 0.00 58 1012.1
20190523162921 73 5 11.0 21.0 0.00 0.00 0.00 58 1012.0
20190523162639 73 327 12.0 21.0 0.00 0.00 0.00 58 1012.0
20190523162421 73 344 12.0 21.0 0.00 0.00 0.00 58 1012.0
20190523162138 72 324 14.0 21.0 0.00 0.00 0.00 59 1012.0
20190523161920 72 343 11.0 21.0 0.00 0.00 0.00 59 1012.0
20190523161640 72 353 13.0 21.0 0.00 0.00 0.00 58 1012.0
20190523161421 72 339 15.0 21.0 0.00 0.00 0.00 58 1012.0
20190523161139 73 315 14.0 21.0 0.00 0.00 0.00 58 1012.0
20190523160921 73 315 14.0 21.0 0.00 0.00 0.00 58 1012.0
20190523160638 73 310 13.0 21.0 0.00 0.00 0.00 58 1012.0
20190523160420 73 349 12.0 21.0 0.00 0.00 0.00 57 1012.0
20190523160139 74 331 10.0 21.0 0.00 0.00 0.00 57 1012.0
20190523155921 74 351 9.0 21.0 0.00 0.00 0.00 57 1012.0
20190523155639 74 320 10.0 21.0 0.00 0.00 0.00 57 1012.0
20190523155420 74 9 12.0 21.0 0.00 0.00 0.00 56 1012.0
20190523155139 74 327 12.0 21.0 0.00 0.00 0.00 56 1012.1
20190523154919 74 343 10.0 21.0 0.00 0.00 0.00 56 1012.1
20190523154639 74 11 9.0 21.0 0.00 0.00 0.00 56 1012.1
20190523154421 74 339 10.0 21.0 0.00 0.00 0.00 56 1012.1
20190523154139 74 327 8.0 21.0 0.00 0.00 0.00 57 1012.1
20190523153921 74 23 12.0 21.0 0.00 0.00 0.00 57 1012.1
20190523153638 74 9 14.0 21.0 0.00 0.00 0.00 57 1012.1
20190523153420 75 0 10.0 21.0 0.00 0.00 0.00 56 1012.1
20190523153140 75 0 10.0 21.0 0.00 0.00 0.00 56 1012.1
20190523152920 75 4 11.0 21.0 0.00 0.00 0.00 56 1012.1
20190523152640 75 18 10.0 21.0 0.00 0.00 0.00 55 1012.1
20190523152419 76 0 15.0 21.0 0.00 0.00 0.00 55 1012.1
20190523152139 76 320 11.0 19.0 0.00 0.00 0.00 55 1012.1
20190523151920 76 26 13.0 19.0 0.00 0.00 0.00 55 1012.1
20190523151638 76 338 11.0 19.0 0.00 0.00 0.00 55 1012.1
20190523151420 76 338 13.0 19.0 0.00 0.00 0.00 55 1012.1
20190523151140 76 323 11.0 19.0 0.00 0.00 0.00 55 1012.1
20190523150920 76 49 11.0 19.0 0.00 0.00 0.00 55 1012.1
20190523150639 76 346 11.0 19.0 0.00 0.00 0.00 55 1012.1
20190523150419 75 307 14.0 19.0 0.00 0.00 0.00 55 1011.8
20190523150139 76 355 11.0 19.0 0.00 0.00 0.00 55 1011.8
20190523145919 76 320 11.0 19.0 0.00 0.00 0.00 55 1011.8
20190523145639 76 351 12.0 19.0 0.00 0.00 0.00 55 1011.8
20190523145421 76 338 11.0 19.0 0.00 0.00 0.00 55 1011.8
20190523145138 75 350 12.0 19.0 0.00 0.00 0.00 55 1011.9
20190523144919 75 356 13.0 19.0 0.00 0.00 0.00 55 1011.9
20190523144639 75 327 10.0 19.0 0.00 0.00 0.00 55 1011.9
20190523144419 76 0 12.0 19.0 0.00 0.00 0.00 55 1011.9
20190523144139 76 0 11.0 19.0 0.00 0.00 0.00 54 1011.9
20190523143920 77 322 14.0 19.0 0.00 0.00 0.00 54 1011.9
20190523143639 77 358 8.0 19.0 0.00 0.00 0.00 54 1011.9
20190523143419 77 29 8.0 19.0 0.00 0.00 0.00 53 1011.9
20190523143139 77 305 11.0 19.0 0.00 0.00 0.00 53 1011.9
20190523142920 77 19 10.0 19.0 0.00 0.00 0.00 53 1011.9
20190523142639 77 12 11.0 19.0 0.00 0.00 0.00 53 1012.0
20190523142421 77 339 11.0 19.0 0.00 0.00 0.00 53 1012.0
20190523142138 77 338 11.0 19.0 0.00 0.00 0.00 52 1012.0
20190523141920 78 337 10.0 19.0 0.00 0.00 0.00 52 1012.0
20190523141638 78 270 10.0 19.0 0.00 0.00 0.00 52 1012.1
20190523141420 78 270 10.0 19.0 0.00 0.00 0.00 52 1012.1
20190523141137 78 275 12.0 19.0 0.00 0.00 0.00 52 1012.1
20190523140920 78 348 11.0 19.0 0.00 0.00 0.00 52 1012.1
20190523140639 78 338 12.0 19.0 0.00 0.00 0.00 52 1012.1
20190523140419 79 22 7.0 19.0 0.00 0.00 0.00 52 1012.0
20190523140138 79 356 8.0 19.0 0.00 0.00 0.00 52 1012.0
20190523135920 79 334 10.0 19.0 0.00 0.00 0.00 52 1012.0
20190523135638 79 5 10.0 19.0 0.00 0.00 0.00 52 1012.0
20190523135420 79 21 6.0 19.0 0.00 0.00 0.00 52 1012.0
20190523135139 79 326 9.0 19.0 0.00 0.00 0.00 52 1012.1
20190523134919 79 315 7.0 19.0 0.00 0.00 0.00 52 1012.1
20190523134639 78 293 7.0 19.0 0.00 0.00 0.00 52 1012.1
20190523134419 78 32 8.0 19.0 0.00 0.00 0.00 52 1012.1
20190523134138 78 320 8.0 19.0 0.00 0.00 0.00 52 1012.1
20190523133920 78 35 8.0 19.0 0.00 0.00 0.00 52 1012.1
20190523133639 78 302 10.0 19.0 0.00 0.00 0.00 52 1012.1
20190523133419 78 351 11.0 19.0 0.00 0.00 0.00 51 1012.1
20190523133139 78 2 7.0 19.0 0.00 0.00 0.00 51 1012.1
20190523132919 78 0 9.0 19.0 0.00 0.00 0.00 50 1012.2
20190523132639 78 9 10.0 19.0 0.00 0.00 0.00 50 1012.2
20190523132419 80 34 12.0 19.0 0.00 0.00 0.00 50 1012.2
20190523132140 80 17 11.0 19.0 0.00 0.00 0.00 50 1012.2
20190523131921 79 2 8.0 19.0 0.00 0.00 0.00 50 1012.2
20190523131638 79 324 12.0 19.0 0.00 0.00 0.00 50 1012.3
20190523131420 79 11 9.0 19.0 0.00 0.00 0.00 50 1012.3
20190523131139 79 297 9.0 19.0 0.00 0.00 0.00 50 1012.3
20190523130923 79 39 10.0 19.0 0.00 0.00 0.00 50 1012.3
20190523130639 79 329 11.0 19.0 0.00 0.00 0.00 50 1012.3
20190523130420 80 19 11.0 19.0 0.00 0.00 0.00 49 1012.3
20190523130138 79 41 8.0 19.0 0.00 0.00 0.00 49 1012.3
20190523125921 79 325 9.0 19.0 0.00 0.00 0.00 49 1012.3
20190523125638 79 4 11.0 19.0 0.00 0.00 0.00 49 1012.3
20190523125420 80 26 11.0 19.0 0.00 0.00 0.00 48 1012.3
20190523125139 79 350 10.0 19.0 0.00 0.00 0.00 48 1012.3
20190523124919 80 45 9.0 19.0 0.00 0.00 0.00 48 1012.3
20190523124639 80 5 8.0 19.0 0.00 0.00 0.00 48 1012.3
20190523124420 79 33 12.0 19.0 0.00 0.00 0.00 48 1012.3
20190523124138 79 338 10.0 19.0 0.00 0.00 0.00 48 1012.3
20190523123919 79 23 10.0 19.0 0.00 0.00 0.00 48 1012.4
20190523123639 79 338 9.0 19.0 0.00 0.00 0.00 49 1012.4
20190523123420 80 47 11.0 19.0 0.00 0.00 0.00 48 1012.4
20190523123138 80 18 9.0 19.0 0.00 0.00 0.00 48 1012.4
20190523122920 80 13 9.0 19.0 0.00 0.00 0.00 48 1012.6
20190523122638 79 22 9.0 19.0 0.00 0.00 0.00 47 1012.6
20190523122422 79 341 10.0 19.0 0.00 0.00 0.00 47 1012.6
20190523122138 79 43 10.0 19.0 0.00 0.00 0.00 45 1012.6
20190523121920 79 15 10.0 19.0 0.00 0.00 0.00 45 1012.6
20190523121638 79 55 9.0 19.0 0.00 0.00 0.00 44 1012.5
20190523121419 79 355 9.0 19.0 0.00 0.00 0.00 45 1012.5
20190523121139 79 2 9.0 19.0 0.00 0.00 0.00 45 1012.5
20190523120919 79 3 10.0 19.0 0.00 0.00 0.00 45 1012.5
20190523120638 79 37 11.0 19.0 0.00 0.00 0.00 45 1012.5
20190523120419 79 0 9.0 19.0 0.00 0.00 0.00 45 1012.7
20190523120139 79 6 8.0 19.0 0.00 0.00 0.00 44 1012.7
20190523115921 79 315 11.0 19.0 0.00 0.00 0.00 44 1012.7
20190523115639 78 0 11.0 19.0 0.00 0.00 0.00 42 1012.7
20190523115420 79 57 12.0 19.0 0.00 0.00 0.00 43 1012.7
20190523115137 78 355 9.0 19.0 0.00 0.00 0.00 45 1012.7
20190523114919 78 10 12.0 19.0 0.00 0.00 0.00 45 1012.7
20190523114639 77 22 10.0 19.0 0.00 0.00 0.00 45 1012.7
20190523114420 77 11 10.0 19.0 0.00 0.00 0.00 46 1012.7
20190523114138 77 33 10.0 19.0 0.00 0.00 0.00 45 1012.7
20190523113921 77 22 11.0 19.0 0.00 0.00 0.00 45 1012.7
20190523113637 77 58 10.0 19.0 0.00 0.00 0.00 45 1012.7
20190523113419 78 22 10.0 19.0 0.00 0.00 0.00 45 1012.7
20190523113139 78 10 8.0 19.0 0.00 0.00 0.00 44 1012.7
20190523112919 77 358 10.0 19.0 0.00 0.00 0.00 45 1012.8
20190523112639 77 40 9.0 19.0 0.00 0.00 0.00 45 1012.9
20190523112420 77 68 11.0 19.0 0.00 0.00 0.00 45 1012.9
20190523112137 77 68 11.0 19.0 0.00 0.00 0.00 45 1012.9
20190523111919 77 68 11.0 19.0 0.00 0.00 0.00 45 1012.9
20190523111639 77 338 12.0 19.0 0.00 0.00 0.00 45 1013.1
20190523111419 78 346 8.0 19.0 0.00 0.00 0.00 46 1013.1
20190523111138 77 356 8.0 19.0 0.00 0.00 0.00 45 1013.1
20190523110918 77 346 8.0 19.0 0.00 0.00 0.00 45 1013.1
20190523110639 77 319 9.0 19.0 0.00 0.00 0.00 45 1013.1
20190523110418 77 22 8.0 19.0 0.00 0.00 0.00 45 1013.1
20190523110138 77 42 11.0 19.0 0.00 0.00 0.00 45 1013.1
20190523105920 76 9 11.0 19.0 0.00 0.00 0.00 46 1013.1
20190523105637 77 33 12.0 19.0 0.00 0.00 0.00 45 1013.1
20190523105418 77 7 10.0 19.0 0.00 0.00 0.00 45 1013.1
20190523105138 77 352 10.0 19.0 0.00 0.00 0.00 46 1013.2
20190523104918 77 2 9.0 19.0 0.00 0.00 0.00 47 1013.2
20190523104638 77 13 10.0 19.0 0.00 0.00 0.00 46 1013.2
20190523104420 76 35 8.0 19.0 0.00 0.00 0.00 46 1013.2
20190523104137 76 328 11.0 19.0 0.00 0.00 0.00 46 1013.1
20190523103920 76 27 9.0 19.0 0.00 0.00 0.00 46 1013.1
20190523103637 76 12 7.0 19.0 0.00 0.00 0.00 47 1013.1
20190523103419 76 26 9.0 19.0 0.00 0.00 0.00 47 1013.1
20190523103137 75 22 8.0 19.0 0.00 0.00 0.00 47 1013.1
20190523102919 75 22 9.0 19.0 0.00 0.00 0.00 47 1013.3
20190523102638 76 10 9.0 19.0 0.00 0.00 0.00 47 1013.3
20190523102418 75 10 10.0 19.0 0.00 0.00 0.00 47 1013.3
20190523102138 75 340 10.0 19.0 0.00 0.00 0.00 47 1013.3
20190523101918 75 331 10.0 19.0 0.00 0.00 0.00 47 1013.3
20190523101638 75 5 8.0 19.0 0.00 0.00 0.00 47 1013.3
20190523101419 75 12 12.0 19.0 0.00 0.00 0.00 47 1013.3
20190523101137 75 22 9.0 18.0 0.00 0.00 0.00 47 1013.3
20190523100921 76 8 5.0 18.0 0.00 0.00 0.00 52 1013.3
20190523100637 75 294 5.0 18.0 0.00 0.00 0.00 52 1013.3
20190523100419 75 19 4.0 18.0 0.00 0.00 0.00 52 1013.2
20190523100138 75 315 6.0 18.0 0.00 0.00 0.00 52 1013.2
20190523095918 74 182 5.0 18.0 0.00 0.00 0.00 52 1013.2
20190523095638 75 338 4.0 18.0 0.00 0.00 0.00 52 1013.2
20190523095418 74 271 5.0 18.0 0.00 0.00 0.00 53 1013.2
20190523095137 73 3 4.0 18.0 0.00 0.00 0.00 54 1013.5
20190523094918 73 351 6.0 18.0 0.00 0.00 0.00 54 1013.5
20190523094637 73 319 6.0 18.0 0.00 0.00 0.00 56 1013.5
20190523094419 72 46 5.0 18.0 0.00 0.00 0.00 57 1013.5
20190523094138 72 35 7.0 18.0 0.00 0.00 0.00 58 1013.5
20190523093919 71 331 6.0 18.0 0.00 0.00 0.00 58 1013.5
20190523093636 71 22 8.0 18.0 0.00 0.00 0.00 58 1013.5
20190523093419 71 12 5.0 18.0 0.00 0.00 0.00 58 1013.5
20190523093138 71 11 7.0 18.0 0.00 0.00 0.00 58 1013.5
20190523092918 71 14 6.0 18.0 0.00 0.00 0.00 58 1013.4
20190523092638 71 22 5.0 18.0 0.00 0.00 0.00 58 1013.4
20190523092418 71 352 9.0 18.0 0.00 0.00 0.00 58 1013.4
20190523092137 70 22 6.0 18.0 0.00 0.00 0.00 59 1013.4
20190523091919 70 10 9.0 18.0 0.00 0.00 0.00 59 1013.4
20190523091638 71 32 7.0 18.0 0.00 0.00 0.00 59 1013.3
20190523091418 70 18 8.0 18.0 0.00 0.00 0.00 59 1013.3
20190523091138 71 17 8.0 18.0 0.00 0.00 0.00 59 1013.3
20190523090918 70 351 6.0 18.0 0.00 0.00 0.00 59 1013.3
20190523090637 70 15 7.0 18.0 0.00 0.00 0.00 60 1013.3
20190523090417 69 57 8.0 18.0 0.00 0.00 0.00 60 1013.2
20190523090137 69 346 7.0 18.0 0.00 0.00 0.00 60 1013.2
20190523085918 69 353 10.0 18.0 0.00 0.00 0.00 61 1013.2
20190523085638 69 36 10.0 18.0 0.00 0.00 0.00 61 1013.2
20190523085418 69 11 9.0 18.0 0.00 0.00 0.00 61 1013.2
20190523085137 68 1 8.0 18.0 0.00 0.00 0.00 61 1013.3
20190523084918 68 35 9.0 18.0 0.00 0.00 0.00 61 1013.3
20190523084638 69 6 9.0 18.0 0.00 0.00 0.00 61 1013.3
20190523084418 70 292 8.0 18.0 0.00 0.00 0.00 60 1013.3
20190523084138 70 292 8.0 18.0 0.00 0.00 0.00 60 1013.1
20190523083919 69 338 4.0 18.0 0.00 0.00 0.00 61 1013.0
20190523083636 68 19 9.0 18.0 0.00 0.00 0.00 63 1013.0
20190523083418 68 34 9.0 18.0 0.00 0.00 0.00 63 1013.0
20190523083136 67 44 12.0 18.0 0.00 0.00 0.00 63 1013.0
20190523082918 67 22 11.0 18.0 0.00 0.00 0.00 63 1013.0
20190523082638 67 359 12.0 18.0 0.00 0.00 0.00 64 1012.9
20190523082418 67 24 13.0 18.0 0.00 0.00 0.00 64 1012.9
20190523082138 67 44 11.0 18.0 0.00 0.00 0.00 64 1012.9
20190523081917 67 351 11.0 18.0 0.00 0.00 0.00 64 1012.9
20190523081637 67 3 10.0 18.0 0.00 0.00 0.00 64 1012.9
20190523081417 67 31 12.0 18.0 0.00 0.00 0.00 64 1012.9
20190523081137 67 2 10.0 18.0 0.00 0.00 0.00 64 1012.9
20190523080919 67 0 8.0 18.0 0.00 0.00 0.00 65 1012.9
20190523080636 66 15 8.0 18.0 0.00 0.00 0.00 66 1012.9
20190523080417 66 27 10.0 18.0 0.00 0.00 0.00 66 1013.0
20190523080137 65 27 11.0 18.0 0.00 0.00 0.00 67 1013.0
20190523075917 65 28 11.0 18.0 0.00 0.00 0.00 67 1013.0
20190523075637 65 33 10.0 18.0 0.00 0.00 0.00 67 1013.0
20190523075418 65 351 13.0 18.0 0.00 0.00 0.00 68 1013.0
20190523075138 64 36 11.0 18.0 0.00 0.00 0.00 68 1013.0
20190523074917 64 347 12.0 18.0 0.00 0.00 0.00 68 1013.0
20190523074638 64 4 12.0 18.0 0.00 0.00 0.00 69 1013.0
20190523074418 64 355 9.0 18.0 0.00 0.00 0.00 69 1013.0
20190523074138 64 34 10.0 18.0 0.00 0.00 0.00 69 1013.0
20190523073918 63 41 11.0 18.0 0.00 0.00 0.00 70 1013.0
20190523073637 63 50 10.0 18.0 0.00 0.00 0.00 70 1013.0
20190523073417 62 20 12.0 18.0 0.00 0.00 0.00 72 1013.0
20190523073137 61 12 12.0 18.0 0.00 0.00 0.00 72 1013.0
20190523072917 61 32 10.0 18.0 0.00 0.00 0.00 72 1013.0
20190523072637 61 32 8.0 18.0 0.00 0.00 0.00 72 1013.0
20190523072419 61 11 8.0 18.0 0.00 0.00 0.00 72 1013.0
20190523072136 61 338 12.0 18.0 0.00 0.00 0.00 72 1013.0
20190523071919 61 356 10.0 16.0 0.00 0.00 0.00 72 1013.0
20190523071636 62 307 10.0 16.0 0.00 0.00 0.00 72 1013.1
20190523071418 62 6 8.0 16.0 0.00 0.00 0.00 71 1013.1
20190523071138 62 33 8.0 16.0 0.00 0.00 0.00 71 1013.1
20190523070918 62 10 9.0 16.0 0.00 0.00 0.00 71 1013.1
20190523070637 62 331 10.0 16.0 0.00 0.00 0.00 71 1013.1
20190523070417 62 5 9.0 16.0 0.00 0.00 0.00 71 1012.5
20190523070137 62 348 11.0 16.0 0.00 0.00 0.00 71 1012.5
20190523065917 62 4 11.0 16.0 0.00 0.00 0.00 72 1012.5
20190523065638 62 34 10.0 16.0 0.00 0.00 0.00 72 1012.5
20190523065418 62 19 9.0 16.0 0.00 0.00 0.00 72 1012.6
20190523065137 62 22 12.0 16.0 0.00 0.00 0.00 72 1012.6
20190523064917 62 12 11.0 13.0 0.00 0.00 0.00 73 1012.6
20190523064636 61 32 11.0 13.0 0.00 0.00 0.00 73 1012.6
20190523064418 61 45 9.0 13.0 0.00 0.00 0.00 73 1012.6
20190523064137 61 50 9.0 12.0 0.00 0.00 0.00 73 1012.6
20190523063918 61 54 9.0 11.0 0.00 0.00 0.00 73 1012.5
20190523063636 61 34 9.0 11.0 0.00 0.00 0.00 73 1012.5
20190523063418 61 32 9.0 10.0 0.00 0.00 0.00 74 1012.5
20190523063136 61 15 7.0 10.0 0.00 0.00 0.00 74 1012.5
20190523062918 60 23 8.0 10.0 0.00 0.00 0.00 74 1012.2
20190523062637 60 36 8.0 10.0 0.00 0.00 0.00 74 1012.2
20190523062418 60 22 7.0 10.0 0.00 0.00 0.00 74 1012.2
20190523062137 60 9 7.0 10.0 0.00 0.00 0.00 75 1012.2
20190523061917 60 44 7.0 10.0 0.00 0.00 0.00 75 1012.2
20190523061638 60 34 6.0 10.0 0.00 0.00 0.00 75 1012.2
20190523061417 60 40 5.0 10.0 0.00 0.00 0.00 76 1012.3
20190523061136 59 30 7.0 10.0 0.00 0.00 0.00 77 1012.3
20190523060919 59 32 5.0 10.0 0.00 0.00 0.00 77 1012.3
20190523060636 59 22 4.0 10.0 0.00 0.00 0.00 78 1012.3
20190523060418 58 357 4.0 10.0 0.00 0.00 0.00 79 1012.3
20190523060136 58 36 4.0 10.0 0.00 0.00 0.00 80 1012.3
20190523055918 57 45 4.0 10.0 0.00 0.00 0.00 81 1012.3
20190523055637 57 34 4.0 10.0 0.00 0.00 0.00 82 1012.3
20190523055417 57 38 5.0 10.0 0.00 0.00 0.00 82 1012.3
20190523055137 56 40 5.0 10.0 0.00 0.00 0.00 83 1012.3
20190523054918 56 31 5.0 10.0 0.00 0.00 0.00 83 1012.3
20190523054636 56 23 4.0 10.0 0.00 0.00 0.00 82 1012.3
20190523054418 56 68 4.0 10.0 0.00 0.00 0.00 82 1012.3
20190523054136 56 45 4.0 10.0 0.00 0.00 0.00 82 1012.3
20190523053917 56 36 5.0 10.0 0.00 0.00 0.00 82 1012.3
20190523053636 56 26 6.0 10.0 0.00 0.00 0.00 82 1012.3
20190523053418 56 10 5.0 10.0 0.00 0.00 0.00 81 1012.3
20190523053137 56 38 5.0 10.0 0.00 0.00 0.00 81 1012.3
20190523052917 56 39 5.0 10.0 0.00 0.00 0.00 81 1012.2
20190523052636 56 36 6.0 10.0 0.00 0.00 0.00 81 1012.2
20190523052416 56 30 6.0 10.0 0.00 0.00 0.00 81 1012.2
20190523052136 56 54 6.0 10.0 0.00 0.00 0.00 81 1012.2
20190523051918 56 45 5.0 10.0 0.00 0.00 0.00 81 1012.2
20190523051636 56 22 5.0 10.0 0.00 0.00 0.00 81 1012.1
20190523051418 56 22 6.0 10.0 0.00 0.00 0.00 81 1012.1
20190523051136 56 22 6.0 10.0 0.00 0.00 0.00 81 1012.1
20190523050917 56 9 4.0 10.0 0.00 0.00 0.00 81 1012.1
20190523050636 56 59 5.0 10.0 0.00 0.00 0.00 81 1012.1
20190523050418 56 80 6.0 10.0 0.00 0.00 0.00 81 1012.1
20190523050136 56 59 6.0 10.0 0.00 0.00 0.00 81 1012.1
20190523045918 56 58 7.0 10.0 0.00 0.00 0.00 81 1012.1
20190523045636 56 22 6.0 10.0 0.00 0.00 0.00 82 1012.1
20190523045417 56 47 5.0 10.0 0.00 0.00 0.00 82 1012.1
20190523045137 56 55 6.0 10.0 0.00 0.00 0.00 82 1012.0
20190523044917 56 60 6.0 10.0 0.00 0.00 0.00 82 1012.0
20190523044637 56 36 6.0 10.0 0.00 0.00 0.00 82 1012.0
20190523044417 56 61 6.0 10.0 0.00 0.00 0.00 82 1012.0
20190523044136 56 56 6.0 10.0 0.00 0.00 0.00 83 1012.1
20190523043916 56 45 6.0 10.0 0.00 0.00 0.00 83 1012.1
20190523043637 56 45 6.0 10.0 0.00 0.00 0.00 83 1012.1
20190523043417 55 68 5.0 10.0 0.00 0.00 0.00 83 1012.1
20190523043137 55 79 4.0 10.0 0.00 0.00 0.00 83 1012.1
20190523042917 55 45 5.0 10.0 0.00 0.00 0.00 83 1012.0
20190523042636 55 40 4.0 10.0 0.00 0.00 0.00 83 1012.0
20190523042416 55 65 5.0 10.0 0.00 0.00 0.00 83 1012.0
20190523042137 55 40 4.0 10.0 0.00 0.00 0.00 83 1012.0
20190523041918 55 32 5.0 10.0 0.00 0.00 0.00 83 1012.0
20190523041637 55 30 3.0 10.0 0.00 0.00 0.00 83 1012.1
20190523041417 55 46 1.0 10.0 0.00 0.00 0.00 82 1012.2
20190523041136 55 335 1.0 10.0 0.00 0.00 0.00 82 1012.2
20190523040916 55 41 1.0 10.0 0.00 0.00 0.00 82 1012.2
20190523040636 55 338 2.0 10.0 0.00 0.00 0.00 82 1012.2
20190523040418 55 356 0.0 10.0 0.00 0.00 0.00 81 1012.2
20190523040135 55 311 1.0 10.0 0.00 0.00 0.00 81 1012.2
20190523035918 56 66 4.0 10.0 0.00 0.00 0.00 81 1012.2
20190523035635 56 90 4.0 10.0 0.00 0.00 0.00 81 1012.2
20190523035417 56 90 4.0 10.0 0.00 0.00 0.00 81 1012.2
20190523035136 56 22 4.0 10.0 0.00 0.00 0.00 81 1012.3
20190523034918 56 54 4.0 10.0 0.00 0.00 0.00 81 1012.3
20190523034635 56 37 4.0 10.0 0.00 0.00 0.00 81 1012.3
20190523034418 56 65 5.0 10.0 0.00 0.00 0.00 81 1012.3
20190523034135 56 68 5.0 10.0 0.00 0.00 0.00 81 1012.2
20190523033918 56 59 6.0 10.0 0.00 0.00 0.00 81 1012.1
20190523033637 56 77 5.0 10.0 0.00 0.00 0.00 81 1012.1
20190523033417 56 45 4.0 10.0 0.00 0.00 0.00 81 1012.1
20190523033136 56 64 3.0 10.0 0.00 0.00 0.00 81 1012.1
20190523032917 56 55 5.0 10.0 0.00 0.00 0.00 81 1012.1
20190523032636 56 45 4.0 10.0 0.00 0.00 0.00 81 1012.1
20190523032416 56 52 5.0 10.0 0.00 0.00 0.00 80 1012.1
20190523032137 56 54 5.0 10.0 0.00 0.00 0.00 80 1012.1
20190523031917 56 45 5.0 10.0 0.00 0.00 0.00 80 1012.1
20190523031636 56 58 5.0 10.0 0.00 0.00 0.00 80 1012.0
20190523031417 57 59 5.0 10.0 0.00 0.00 0.00 80 1012.0
20190523031135 57 26 4.0 10.0 0.00 0.00 0.00 80 1012.0
20190523030917 57 4 3.0 10.0 0.00 0.00 0.00 80 1012.0
20190523030637 57 45 6.0 10.0 0.00 0.00 0.00 80 1012.0
20190523030417 57 59 6.0 10.0 0.00 0.00 0.00 80 1012.0
20190523030135 57 46 6.0 10.0 0.00 0.00 0.00 80 1012.0
20190523025918 57 58 7.0 10.0 0.00 0.00 0.00 80 1012.0
20190523025635 57 48 5.0 10.0 0.00 0.00 0.00 80 1012.0
20190523025417 57 45 5.0 10.0 0.00 0.00 0.00 80 1012.0
20190523025137 57 66 4.0 10.0 0.00 0.00 0.00 80 1012.0
20190523024917 57 22 4.0 10.0 0.00 0.00 0.00 79 1012.0
20190523024636 57 52 4.0 10.0 0.00 0.00 0.00 79 1012.0
20190523024416 57 31 6.0 10.0 0.00 0.00 0.00 79 1012.0
20190523024136 57 28 5.0 10.0 0.00 0.00 0.00 79 1012.0
20190523023916 57 22 5.0 10.0 0.00 0.00 0.00 79 1011.9
20190523023638 57 34 5.0 10.0 0.00 0.00 0.00 79 1011.9
20190523023417 57 34 5.0 10.0 0.00 0.00 0.00 79 1011.9
20190523023136 58 30 5.0 10.0 0.00 0.00 0.00 79 1011.9
20190523022916 58 32 5.0 10.0 0.00 0.00 0.00 79 1012.0
20190523022635 58 45 6.0 10.0 0.00 0.00 0.00 78 1012.0
20190523022417 58 45 6.0 10.0 0.00 0.00 0.00 78 1012.0
20190523022135 58 40 5.0 10.0 0.00 0.00 0.00 78 1012.0
20190523021917 58 36 5.0 10.0 0.00 0.00 0.00 78 1012.0
20190523021635 58 24 6.0 10.0 0.00 0.00 0.00 78 1011.9
20190523021417 58 358 4.0 10.0 0.00 0.00 0.00 78 1011.9
20190523021135 58 10 5.0 10.0 0.00 0.00 0.00 78 1011.9
20190523020917 58 36 6.0 10.0 0.00 0.00 0.00 78 1011.9
20190523020634 58 45 4.0 10.0 0.00 0.00 0.00 78 1012.0
20190523020417 58 49 5.0 10.0 0.00 0.00 0.00 78 1012.1
20190523020136 58 32 5.0 10.0 0.00 0.00 0.00 78 1012.1
20190523015916 58 33 5.0 10.0 0.00 0.00 0.00 78 1012.1
20190523015635 58 43 5.0 10.0 0.00 0.00 0.00 78 1012.1
20190523015417 58 22 7.0 10.0 0.00 0.00 0.00 78 1012.1
20190523015135 58 22 7.0 10.0 0.00 0.00 0.00 78 1012.2
20190523014917 58 22 7.0 10.0 0.00 0.00 0.00 78 1012.2
20190523014636 58 32 5.0 10.0 0.00 0.00 0.00 78 1012.2
20190523014416 58 355 6.0 10.0 0.00 0.00 0.00 78 1012.2
20190523014136 58 58 6.0 10.0 0.00 0.00 0.00 78 1012.2
20190523013916 58 30 5.0 10.0 0.00 0.00 0.00 78 1012.2
20190523013636 58 45 6.0 10.0 0.00 0.00 0.00 78 1012.2
20190523013416 58 47 6.0 10.0 0.00 0.00 0.00 78 1012.2
20190523013135 58 37 6.0 10.0 0.00 0.00 0.00 78 1012.2
20190523012918 58 33 5.0 10.0 0.00 0.00 0.00 78 1012.2
20190523012635 58 20 5.0 10.0 0.00 0.00 0.00 78 1012.2
20190523012417 58 45 6.0 10.0 0.00 0.00 0.00 78 1012.2
20190523012135 58 27 6.0 10.0 0.00 0.00 0.00 78 1012.2
20190523011916 58 40 6.0 10.0 0.00 0.00 0.00 78 1012.2
20190523011635 58 53 6.0 10.0 0.00 0.00 0.00 78 1012.2
20190523011418 58 45 6.0 10.0 0.00 0.00 0.00 78 1012.2
20190523011136 58 34 6.0 10.0 0.00 0.00 0.00 78 1012.2
20190523010916 58 49 6.0 10.0 0.00 0.00 0.00 78 1012.2
20190523010635 58 77 5.0 10.0 0.00 0.00 0.00 78 1012.2
20190523010416 58 46 6.0 10.0 0.00 0.00 0.00 78 1012.5
20190523010136 58 51 6.0 10.0 0.00 0.00 0.00 78 1012.5
20190523005917 58 40 5.0 10.0 0.00 0.00 0.00 78 1012.5
20190523005637 58 40 6.0 10.0 0.00 0.00 0.00 78 1012.5
20190523005416 58 20 5.0 10.0 0.00 0.00 0.00 78 1012.5
20190523005136 58 38 5.0 10.0 0.00 0.00 0.00 78 1012.7
20190523004916 58 26 4.0 10.0 0.00 0.00 0.00 77 1012.7
20190523004636 59 31 5.0 10.0 0.00 0.00 0.00 77 1012.7
20190523004415 59 31 5.0 10.0 0.00 0.00 0.00 77 1012.7
20190523004135 59 32 4.0 10.0 0.00 0.00 0.00 77 1012.7
20190523003917 59 41 5.0 10.0 0.00 0.00 0.00 77 1012.6
20190523003635 59 35 5.0 10.0 0.00 0.00 0.00 77 1012.6
20190523003417 59 29 5.0 10.0 0.00 0.00 0.00 77 1012.6
20190523003135 59 355 5.0 10.0 0.00 0.00 0.00 77 1012.6
20190523002916 59 22 5.0 10.0 0.00 0.00 0.00 77 1012.5
20190523002636 59 22 6.0 10.0 0.00 0.00 0.00 77 1012.5
20190523002416 59 22 5.0 10.0 0.00 0.00 0.00 76 1012.5
20190523002136 59 29 7.0 10.0 0.00 0.00 0.00 76 1012.5
20190523001916 59 67 6.0 10.0 0.00 0.00 0.00 76 1012.5
20190523001635 59 45 6.0 10.0 0.00 0.00 0.00 76 1012.7
20190523001417 59 25 7.0 10.0 0.00 0.00 0.00 76 1012.7
20190523001136 59 33 6.0 10.0 0.00 0.00 0.00 76 1012.7
20190523000916 59 45 6.0 10.0 0.00 0.00 0.00 76 1012.7
20190523000634 59 50 7.0 10.0 0.00 0.00 0.00 76 1012.7
20190523000416 59 32 7.0 10.0 0.00 0.00 0.00 76 1012.7
20190523000135 59 28 8.0 10.0 0.00 0.00 0.00 76 1012.7
20190522235916 59 45 6.0 10.0 0.00 0.00 0.00 76 1012.7
20190522235635 59 35 8.0 10.0 0.00 0.00 0.00 75 1012.7
20190522235417 59 17 7.0 10.0 0.00 0.00 0.00 75 1012.7
20190522235135 59 22 6.0 10.0 0.00 0.00 0.00 75 1012.6
20190522234917 59 24 7.0 10.0 0.00 0.00 0.00 75 1012.6
20190522234635 59 42 7.0 9.0 0.00 0.00 0.00 75 1012.6
20190522234416 59 2 6.0 9.0 0.00 0.00 0.00 75 1012.6
20190522234135 60 23 8.0 9.0 0.00 0.00 0.00 75 1012.6
20190522233917 60 22 8.0 9.0 0.00 0.00 0.00 75 1012.6
20190522233636 60 32 7.0 9.0 0.00 0.00 0.00 75 1012.6
20190522233416 60 30 8.0 9.0 0.00 0.00 0.00 75 1012.6
20190522233135 60 11 7.0 9.0 0.00 0.00 0.00 75 1012.6
20190522232915 60 0 7.0 9.0 0.00 0.00 0.00 75 1012.7
20190522232635 60 23 6.0 9.0 0.00 0.00 0.00 75 1012.7
20190522232416 60 22 6.0 9.0 0.00 0.00 0.00 75 1012.7
20190522232136 60 49 6.0 9.0 0.00 0.00 0.00 75 1012.7
20190522231915 60 22 6.0 9.0 0.00 0.00 0.00 75 1012.7
20190522231635 60 25 7.0 9.0 0.00 0.00 0.00 75 1012.7
20190522231415 60 40 6.0 9.0 0.00 0.00 0.00 75 1012.7
20190522231135 60 33 6.0 9.0 0.00 0.00 0.00 74 1012.7
20190522230917 60 35 7.0 9.0 0.00 0.00 0.00 74 1012.7
20190522230634 60 34 6.0 8.0 0.00 0.00 0.00 74 1012.7
20190522230416 60 22 7.0 8.0 0.00 0.00 0.00 73 1012.6
20190522230134 60 59 7.0 16.0 0.00 0.00 0.00 73 1012.6
20190522225916 61 28 7.0 16.0 0.00 0.00 0.00 72 1012.6
20190522225636 61 22 8.0 16.0 0.00 0.00 0.00 72 1012.6
20190522225416 61 37 7.0 16.0 0.00 0.00 0.00 72 1012.6
20190522225135 61 33 7.0 16.0 0.00 0.00 0.00 72 1012.7
20190522224915 61 22 7.0 16.0 0.00 0.00 0.00 71 1012.7
20190522224635 61 35 7.0 16.0 0.00 0.00 0.00 71 1012.7
20190522224415 61 33 7.0 16.0 0.00 0.00 0.00 71 1012.7
20190522224135 61 22 7.0 16.0 0.00 0.00 0.00 71 1012.7
20190522223917 61 22 7.0 16.0 0.00 0.00 0.00 70 1012.7
20190522223634 61 44 5.0 16.0 0.00 0.00 0.00 70 1012.7
20190522223416 61 4 7.0 16.0 0.00 0.00 0.00 70 1012.7
20190522223134 61 30 5.0 16.0 0.00 0.00 0.00 70 1012.7
20190522222916 61 33 5.0 16.0 0.00 0.00 0.00 69 1012.8
20190522222636 61 23 5.0 16.0 0.00 0.00 0.00 69 1012.8
20190522222416 62 22 5.0 16.0 0.00 0.00 0.00 69 1012.8
20190522222135 62 39 5.0 16.0 0.00 0.00 0.00 69 1012.8
20190522221916 62 31 6.0 16.0 0.00 0.00 0.00 68 1012.8
20190522221635 62 42 6.0 16.0 0.00 0.00 0.00 68 1012.8
20190522221415 62 22 6.0 16.0 0.00 0.00 0.00 67 1012.8
20190522221134 62 36 6.0 16.0 0.00 0.00 0.00 67 1012.8
20190522220916 62 44 7.0 16.0 0.00 0.00 0.00 67 1012.8
20190522220634 62 22 6.0 16.0 0.00 0.00 0.00 67 1012.8
20190522220416 63 22 6.0 16.0 0.00 0.00 0.00 66 1012.7
20190522220134 63 36 8.0 16.0 0.00 0.00 0.00 66 1012.7
20190522215916 63 22 6.0 16.0 0.00 0.00 0.00 66 1012.7
20190522215636 63 0 8.0 16.0 0.00 0.00 0.00 66 1012.7
20190522215416 63 22 8.0 16.0 0.00 0.00 0.00 65 1012.7
20190522215135 63 34 8.0 16.0 0.00 0.00 0.00 65 1012.5
20190522214915 63 31 8.0 16.0 0.00 0.00 0.00 65 1012.5
20190522214635 63 22 8.0 16.0 0.00 0.00 0.00 65 1012.5
20190522214415 63 22 8.0 16.0 0.00 0.00 0.00 64 1012.5
20190522214134 63 35 8.0 16.0 0.00 0.00 0.00 64 1012.5
20190522213914 63 12 7.0 16.0 0.00 0.00 0.00 64 1012.5
20190522213634 63 26 7.0 16.0 0.00 0.00 0.00 64 1012.5
20190522213416 63 22 7.0 16.0 0.00 0.00 0.00 64 1012.5
20190522213134 63 22 7.0 16.0 0.00 0.00 0.00 64 1012.5
20190522212916 63 36 7.0 16.0 0.00 0.00 0.00 64 1012.3
20190522212633 63 24 6.0 16.0 0.00 0.00 0.00 64 1012.3